sensor_id;sensor_type;location;lat;lon;timestamp;temperature;humidity
5278;DHT22;2662;51.194;6.614;2023-04-16T00:00:58;9.60;99.90
5278;DHT22;2662;51.194;6.614;2023-04-16T00:03:25;9.60;99.90
5278;DHT22;2662;51.194;6.614;2023-04-16T00:05:52;9.60;99.90
5278;DHT22;2662;51.194;6.614;2023-04-16T00:08:20;9.60;99.90
5278;DHT22;2662;51.194;6.614;2023-04-16T00:10:48;9.60;99.90
5278;DHT22;2662;51.194;6.614;2023-04-16T00:13:15;9.70;99.90
5278;DHT22;2662;51.194;6.614;2023-04-16T00:15:42;9.80;99.90
5278;DHT22;2662;51.194;6.614;2023-04-16T00:18:10;9.80;99.90
5278;DHT22;2662;51.194;6.614;2023-04-16T00:20:37;9.90;99.90
5278;DHT22;2662;51.194;6.614;2023-04-16T00:23:03;9.90;99.90
5278;DHT22;2662;51.194;6.614;2023-04-16T00:25:30;9.90;99.90
5278;DHT22;2662;51.194;6.614;2023-04-16T00:27:57;9.90;99.90
5278;DHT22;2662;51.194;6.614;2023-04-16T00:30:23;9.90;99.90
5278;DHT22;2662;51.194;6.614;2023-04-16T00:32:50;9.90;99.90
5278;DHT22;2662;51.194;6.614;2023-04-16T00:35:18;9.80;99.90
5278;DHT22;2662;51.194;6.614;2023-04-16T00:37:45;9.80;99.90
5278;DHT22;2662;51.194;6.614;2023-04-16T00:40:12;9.80;99.90
5278;DHT22;2662;51.194;6.614;2023-04-16T00:42:38;9.70;99.90
5278;DHT22;2662;51.194;6.614;2023-04-16T00:45:06;9.70;99.90
5278;DHT22;2662;51.194;6.614;2023-04-16T00:47:33;9.70;99.90
5278;DHT22;2662;51.194;6.614;2023-04-16T00:50:00;9.70;99.90
5278;DHT22;2662;51.194;6.614;2023-04-16T00:52:30;9.70;99.90
5278;DHT22;2662;51.194;6.614;2023-04-16T00:54:57;9.80;99.90
5278;DHT22;2662;51.194;6.614;2023-04-16T00:57:24;9.80;99.90
5278;DHT22;2662;51.194;6.614;2023-04-16T00:59:51;9.80;99.90
5278;DHT22;2662;51.194;6.614;2023-04-16T01:02:19;9.90;99.90
5278;DHT22;2662;51.194;6.614;2023-04-16T01:04:46;9.90;99.90
5278;DHT22;2662;51.194;6.614;2023-04-16T01:07:12;9.80;99.90
5278;DHT22;2662;51.194;6.614;2023-04-16T01:09:40;9.70;99.90
5278;DHT22;2662;51.194;6.614;2023-04-16T01:12:07;9.60;99.90
5278;DHT22;2662;51.194;6.614;2023-04-16T01:14:34;9.60;99.90
5278;DHT22;2662;51.194;6.614;2023-04-16T01:17:01;9.50;99.90
5278;DHT22;2662;51.194;6.614;2023-04-16T01:19:28;9.50;99.90
5278;DHT22;2662;51.194;6.614;2023-04-16T01:21:57;9.50;99.90
5278;DHT22;2662;51.194;6.614;2023-04-16T01:24:23;9.50;99.90
5278;DHT22;2662;51.194;6.614;2023-04-16T01:26:50;9.60;99.90
5278;DHT22;2662;51.194;6.614;2023-04-16T01:29:17;9.50;99.90
5278;DHT22;2662;51.194;6.614;2023-04-16T01:31:43;9.60;99.90
5278;DHT22;2662;51.194;6.614;2023-04-16T01:34:11;9.50;99.90
5278;DHT22;2662;51.194;6.614;2023-04-16T01:36:37;9.50;99.90
5278;DHT22;2662;51.194;6.614;2023-04-16T01:39:05;9.60;99.90
5278;DHT22;2662;51.194;6.614;2023-04-16T01:41:35;9.60;99.90
5278;DHT22;2662;51.194;6.614;2023-04-16T01:44:02;9.60;99.90
5278;DHT22;2662;51.194;6.614;2023-04-16T01:46:32;9.60;99.90
5278;DHT22;2662;51.194;6.614;2023-04-16T01:48:59;9.50;99.90
5278;DHT22;2662;51.194;6.614;2023-04-16T01:51:26;9.50;99.90
5278;DHT22;2662;51.194;6.614;2023-04-16T01:53:53;9.50;99.90
5278;DHT22;2662;51.194;6.614;2023-04-16T01:56:22;9.50;99.90
5278;DHT22;2662;51.194;6.614;2023-04-16T01:58:48;9.50;99.90
5278;DHT22;2662;51.194;6.614;2023-04-16T02:01:15;9.50;99.90
5278;DHT22;2662;51.194;6.614;2023-04-16T02:03:42;9.60;99.90
5278;DHT22;2662;51.194;6.614;2023-04-16T02:06:09;9.60;99.90
5278;DHT22;2662;51.194;6.614;2023-04-16T02:08:35;9.60;99.90
5278;DHT22;2662;51.194;6.614;2023-04-16T02:11:02;9.60;99.90
5278;DHT22;2662;51.194;6.614;2023-04-16T02:13:30;9.70;99.90
5278;DHT22;2662;51.194;6.614;2023-04-16T02:15:57;9.70;99.90
5278;DHT22;2662;51.194;6.614;2023-04-16T02:18:23;9.60;99.90
5278;DHT22;2662;51.194;6.614;2023-04-16T02:20:50;9.70;99.90
5278;DHT22;2662;51.194;6.614;2023-04-16T02:23:17;9.70;99.90
5278;DHT22;2662;51.194;6.614;2023-04-16T02:25:45;9.70;99.90
5278;DHT22;2662;51.194;6.614;2023-04-16T02:28:14;9.80;99.90
5278;DHT22;2662;51.194;6.614;2023-04-16T02:30:42;9.70;99.90
5278;DHT22;2662;51.194;6.614;2023-04-16T02:33:10;9.70;99.90
5278;DHT22;2662;51.194;6.614;2023-04-16T02:35:38;9.80;99.90
5278;DHT22;2662;51.194;6.614;2023-04-16T02:38:06;9.80;99.90
5278;DHT22;2662;51.194;6.614;2023-04-16T02:40:33;9.70;99.90
5278;DHT22;2662;51.194;6.614;2023-04-16T02:42:59;9.70;99.90
5278;DHT22;2662;51.194;6.614;2023-04-16T02:45:26;9.70;99.90
5278;DHT22;2662;51.194;6.614;2023-04-16T02:47:54;9.70;99.90
5278;DHT22;2662;51.194;6.614;2023-04-16T02:50:21;9.60;99.90
5278;DHT22;2662;51.194;6.614;2023-04-16T02:52:48;9.70;99.90
5278;DHT22;2662;51.194;6.614;2023-04-16T02:55:16;9.70;99.90
5278;DHT22;2662;51.194;6.614;2023-04-16T02:57:42;9.80;99.90
5278;DHT22;2662;51.194;6.614;2023-04-16T03:00:10;9.80;99.90
5278;DHT22;2662;51.194;6.614;2023-04-16T03:02:37;9.80;99.90
5278;DHT22;2662;51.194;6.614;2023-04-16T03:05:05;9.90;99.90
5278;DHT22;2662;51.194;6.614;2023-04-16T03:07:32;9.90;99.90
5278;DHT22;2662;51.194;6.614;2023-04-16T03:09:59;9.90;99.90
5278;DHT22;2662;51.194;6.614;2023-04-16T03:12:26;9.80;99.90
5278;DHT22;2662;51.194;6.614;2023-04-16T03:14:53;9.80;99.90
5278;DHT22;2662;51.194;6.614;2023-04-16T03:17:19;9.80;99.90
5278;DHT22;2662;51.194;6.614;2023-04-16T03:19:46;9.70;99.90
5278;DHT22;2662;51.194;6.614;2023-04-16T03:22:16;9.70;99.90
5278;DHT22;2662;51.194;6.614;2023-04-16T03:24:43;9.70;99.90
5278;DHT22;2662;51.194;6.614;2023-04-16T03:27:10;9.70;99.90
5278;DHT22;2662;51.194;6.614;2023-04-16T03:29:37;9.60;99.90
5278;DHT22;2662;51.194;6.614;2023-04-16T03:32:03;9.60;99.90
5278;DHT22;2662;51.194;6.614;2023-04-16T03:34:30;9.60;99.90
5278;DHT22;2662;51.194;6.614;2023-04-16T03:36:57;9.70;99.90
5278;DHT22;2662;51.194;6.614;2023-04-16T03:39:25;9.70;99.90
5278;DHT22;2662;51.194;6.614;2023-04-16T03:41:52;9.80;99.90
5278;DHT22;2662;51.194;6.614;2023-04-16T03:44:19;9.80;99.90
5278;DHT22;2662;51.194;6.614;2023-04-16T03:46:45;9.70;99.90
5278;DHT22;2662;51.194;6.614;2023-04-16T03:49:12;9.80;99.90
5278;DHT22;2662;51.194;6.614;2023-04-16T03:51:39;9.80;99.90
5278;DHT22;2662;51.194;6.614;2023-04-16T03:54:05;9.80;99.90
5278;DHT22;2662;51.194;6.614;2023-04-16T03:56:33;9.70;99.90
5278;DHT22;2662;51.194;6.614;2023-04-16T03:59:00;9.70;99.90
5278;DHT22;2662;51.194;6.614;2023-04-16T04:01:27;9.70;99.90
5278;DHT22;2662;51.194;6.614;2023-04-16T04:03:53;9.70;99.90
5278;DHT22;2662;51.194;6.614;2023-04-16T04:06:20;9.70;99.90
5278;DHT22;2662;51.194;6.614;2023-04-16T04:08:47;9.70;99.90
5278;DHT22;2662;51.194;6.614;2023-04-16T04:11:13;9.70;99.90
5278;DHT22;2662;51.194;6.614;2023-04-16T04:13:41;9.80;99.90
5278;DHT22;2662;51.194;6.614;2023-04-16T04:16:08;9.80;99.90
5278;DHT22;2662;51.194;6.614;2023-04-16T04:18:35;9.80;99.90
5278;DHT22;2662;51.194;6.614;2023-04-16T04:21:05;9.80;99.90
5278;DHT22;2662;51.194;6.614;2023-04-16T04:23:32;9.80;99.90
5278;DHT22;2662;51.194;6.614;2023-04-16T04:25:58;9.70;99.90
5278;DHT22;2662;51.194;6.614;2023-04-16T04:28:28;9.70;99.90
5278;DHT22;2662;51.194;6.614;2023-04-16T04:30:56;9.70;99.90
5278;DHT22;2662;51.194;6.614;2023-04-16T04:33:23;9.70;99.90
5278;DHT22;2662;51.194;6.614;2023-04-16T04:35:49;9.70;99.90
5278;DHT22;2662;51.194;6.614;2023-04-16T04:38:16;9.70;99.90
5278;DHT22;2662;51.194;6.614;2023-04-16T04:40:44;9.70;99.90
5278;DHT22;2662;51.194;6.614;2023-04-16T04:43:11;9.70;99.90
5278;DHT22;2662;51.194;6.614;2023-04-16T04:45:38;9.70;99.90
5278;DHT22;2662;51.194;6.614;2023-04-16T04:48:06;9.70;99.90
5278;DHT22;2662;51.194;6.614;2023-04-16T04:50:32;9.70;99.90
5278;DHT22;2662;51.194;6.614;2023-04-16T04:52:59;9.70;99.90
5278;DHT22;2662;51.194;6.614;2023-04-16T04:55:26;9.70;99.90
5278;DHT22;2662;51.194;6.614;2023-04-16T04:57:53;9.70;99.90
5278;DHT22;2662;51.194;6.614;2023-04-16T05:00:19;9.70;99.90
5278;DHT22;2662;51.194;6.614;2023-04-16T05:02:46;9.70;99.90
5278;DHT22;2662;51.194;6.614;2023-04-16T05:05:15;9.70;99.90
5278;DHT22;2662;51.194;6.614;2023-04-16T05:07:41;9.70;99.90
5278;DHT22;2662;51.194;6.614;2023-04-16T05:10:08;9.70;99.90
5278;DHT22;2662;51.194;6.614;2023-04-16T05:12:35;9.70;99.90
5278;DHT22;2662;51.194;6.614;2023-04-16T05:15:02;9.70;99.90
5278;DHT22;2662;51.194;6.614;2023-04-16T05:17:29;9.70;99.90
5278;DHT22;2662;51.194;6.614;2023-04-16T05:19:56;9.70;99.90
5278;DHT22;2662;51.194;6.614;2023-04-16T05:22:24;9.80;99.90
5278;DHT22;2662;51.194;6.614;2023-04-16T05:24:50;9.90;99.90
5278;DHT22;2662;51.194;6.614;2023-04-16T05:27:17;9.90;99.90
5278;DHT22;2662;51.194;6.614;2023-04-16T05:29:44;9.90;99.90
5278;DHT22;2662;51.194;6.614;2023-04-16T05:32:10;9.90;99.90
5278;DHT22;2662;51.194;6.614;2023-04-16T05:34:37;9.90;99.90
5278;DHT22;2662;51.194;6.614;2023-04-16T05:37:04;9.90;99.90
5278;DHT22;2662;51.194;6.614;2023-04-16T05:39:32;9.90;99.90
5278;DHT22;2662;51.194;6.614;2023-04-16T05:41:58;10.00;99.90
5278;DHT22;2662;51.194;6.614;2023-04-16T05:44:26;9.90;99.90
5278;DHT22;2662;51.194;6.614;2023-04-16T05:46:52;9.90;99.90
5278;DHT22;2662;51.194;6.614;2023-04-16T05:49:19;9.90;99.90
5278;DHT22;2662;51.194;6.614;2023-04-16T05:51:46;9.80;99.90
5278;DHT22;2662;51.194;6.614;2023-04-16T05:54:13;9.80;99.90
5278;DHT22;2662;51.194;6.614;2023-04-16T05:56:42;9.90;99.90
5278;DHT22;2662;51.194;6.614;2023-04-16T05:59:08;9.90;99.90
5278;DHT22;2662;51.194;6.614;2023-04-16T06:01:35;9.90;99.90
5278;DHT22;2662;51.194;6.614;2023-04-16T06:04:02;9.90;99.90
5278;DHT22;2662;51.194;6.614;2023-04-16T06:06:28;9.90;99.90
5278;DHT22;2662;51.194;6.614;2023-04-16T06:08:55;9.90;99.90
5278;DHT22;2662;51.194;6.614;2023-04-16T06:11:22;9.90;99.90
5278;DHT22;2662;51.194;6.614;2023-04-16T06:13:50;9.90;99.90
5278;DHT22;2662;51.194;6.614;2023-04-16T06:16:17;10.00;99.90
5278;DHT22;2662;51.194;6.614;2023-04-16T06:18:43;10.00;99.90
5278;DHT22;2662;51.194;6.614;2023-04-16T06:21:10;10.10;99.90
5278;DHT22;2662;51.194;6.614;2023-04-16T06:23:37;10.10;99.90
5278;DHT22;2662;51.194;6.614;2023-04-16T06:26:04;10.10;99.90
5278;DHT22;2662;51.194;6.614;2023-04-16T06:28:31;10.10;99.90
5278;DHT22;2662;51.194;6.614;2023-04-16T06:30:59;10.10;99.90
5278;DHT22;2662;51.194;6.614;2023-04-16T06:33:26;10.20;99.90
5278;DHT22;2662;51.194;6.614;2023-04-16T06:35:52;10.20;99.90
5278;DHT22;2662;51.194;6.614;2023-04-16T06:38:19;10.10;99.90
5278;DHT22;2662;51.194;6.614;2023-04-16T06:40:47;9.90;99.90
5278;DHT22;2662;51.194;6.614;2023-04-16T06:43:14;9.90;99.90
5278;DHT22;2662;51.194;6.614;2023-04-16T06:45:42;9.90;99.90
5278;DHT22;2662;51.194;6.614;2023-04-16T06:48:10;9.90;99.90
5278;DHT22;2662;51.194;6.614;2023-04-16T06:50:36;9.90;99.90
5278;DHT22;2662;51.194;6.614;2023-04-16T06:53:03;9.90;99.90
5278;DHT22;2662;51.194;6.614;2023-04-16T06:55:30;10.00;99.90
5278;DHT22;2662;51.194;6.614;2023-04-16T06:57:57;10.00;99.90
5278;DHT22;2662;51.194;6.614;2023-04-16T07:00:23;10.00;99.90
5278;DHT22;2662;51.194;6.614;2023-04-16T07:02:50;10.00;99.90
5278;DHT22;2662;51.194;6.614;2023-04-16T07:05:18;10.00;99.90
5278;DHT22;2662;51.194;6.614;2023-04-16T07:07:45;10.10;99.90
5278;DHT22;2662;51.194;6.614;2023-04-16T07:10:12;10.00;99.90
5278;DHT22;2662;51.194;6.614;2023-04-16T07:12:38;10.00;99.90
5278;DHT22;2662;51.194;6.614;2023-04-16T07:15:06;10.10;99.90
5278;DHT22;2662;51.194;6.614;2023-04-16T07:17:33;10.00;99.90
5278;DHT22;2662;51.194;6.614;2023-04-16T07:20:00;10.00;99.90
5278;DHT22;2662;51.194;6.614;2023-04-16T07:22:28;10.00;99.90
5278;DHT22;2662;51.194;6.614;2023-04-16T07:24:55;10.00;99.90
5278;DHT22;2662;51.194;6.614;2023-04-16T07:27:21;10.00;99.90
5278;DHT22;2662;51.194;6.614;2023-04-16T07:29:48;10.10;99.90
5278;DHT22;2662;51.194;6.614;2023-04-16T07:32:15;10.10;99.90
5278;DHT22;2662;51.194;6.614;2023-04-16T07:34:42;10.20;99.90
5278;DHT22;2662;51.194;6.614;2023-04-16T07:37:09;10.30;99.90
5278;DHT22;2662;51.194;6.614;2023-04-16T07:39:37;10.40;99.90
5278;DHT22;2662;51.194;6.614;2023-04-16T07:42:03;10.40;99.90
5278;DHT22;2662;51.194;6.614;2023-04-16T07:44:31;10.50;99.90
5278;DHT22;2662;51.194;6.614;2023-04-16T07:46:57;10.40;99.90
5278;DHT22;2662;51.194;6.614;2023-04-16T07:49:24;10.40;99.90
5278;DHT22;2662;51.194;6.614;2023-04-16T07:51:51;10.40;99.90
5278;DHT22;2662;51.194;6.614;2023-04-16T07:54:17;10.60;99.90
5278;DHT22;2662;51.194;6.614;2023-04-16T07:56:45;10.60;99.90
5278;DHT22;2662;51.194;6.614;2023-04-16T07:59:12;10.70;99.90
5278;DHT22;2662;51.194;6.614;2023-04-16T08:01:39;10.80;99.90
5278;DHT22;2662;51.194;6.614;2023-04-16T08:04:05;10.80;99.90
5278;DHT22;2662;51.194;6.614;2023-04-16T08:06:32;10.70;99.90
5278;DHT22;2662;51.194;6.614;2023-04-16T08:08:59;10.90;99.90
5278;DHT22;2662;51.194;6.614;2023-04-16T08:11:26;11.20;99.90
5278;DHT22;2662;51.194;6.614;2023-04-16T08:13:54;11.50;99.90
5278;DHT22;2662;51.194;6.614;2023-04-16T08:16:20;11.60;99.90
5278;DHT22;2662;51.194;6.614;2023-04-16T08:18:47;11.90;99.90
5278;DHT22;2662;51.194;6.614;2023-04-16T08:21:14;11.80;99.90
5278;DHT22;2662;51.194;6.614;2023-04-16T08:23:40;12.20;99.90
5278;DHT22;2662;51.194;6.614;2023-04-16T08:26:07;12.10;99.90
5278;DHT22;2662;51.194;6.614;2023-04-16T08:28:34;12.00;99.90
5278;DHT22;2662;51.194;6.614;2023-04-16T08:31:02;11.80;99.90
5278;DHT22;2662;51.194;6.614;2023-04-16T08:33:29;11.70;99.90
5278;DHT22;2662;51.194;6.614;2023-04-16T08:35:55;11.70;99.90
5278;DHT22;2662;51.194;6.614;2023-04-16T08:38:22;11.90;99.90
5278;DHT22;2662;51.194;6.614;2023-04-16T08:40:49;12.20;99.90
5278;DHT22;2662;51.194;6.614;2023-04-16T08:43:17;12.40;99.90
5278;DHT22;2662;51.194;6.614;2023-04-16T08:45:45;12.40;99.90
5278;DHT22;2662;51.194;6.614;2023-04-16T08:48:14;12.40;99.90
5278;DHT22;2662;51.194;6.614;2023-04-16T08:50:42;12.30;99.90
5278;DHT22;2662;51.194;6.614;2023-04-16T08:53:10;12.20;99.90
5278;DHT22;2662;51.194;6.614;2023-04-16T08:55:45;12.30;99.90
5278;DHT22;2662;51.194;6.614;2023-04-16T08:58:13;12.20;99.90
5278;DHT22;2662;51.194;6.614;2023-04-16T09:00:41;12.20;99.90
5278;DHT22;2662;51.194;6.614;2023-04-16T09:03:10;12.10;99.90
5278;DHT22;2662;51.194;6.614;2023-04-16T09:05:39;12.20;99.90
5278;DHT22;2662;51.194;6.614;2023-04-16T09:08:07;12.30;99.90
5278;DHT22;2662;51.194;6.614;2023-04-16T09:10:34;12.40;99.90
5278;DHT22;2662;51.194;6.614;2023-04-16T09:13:01;12.50;99.90
5278;DHT22;2662;51.194;6.614;2023-04-16T09:15:27;12.60;99.90
5278;DHT22;2662;51.194;6.614;2023-04-16T09:17:55;12.70;99.90
5278;DHT22;2662;51.194;6.614;2023-04-16T09:20:22;13.00;99.90
5278;DHT22;2662;51.194;6.614;2023-04-16T09:22:50;13.20;99.90
5278;DHT22;2662;51.194;6.614;2023-04-16T09:25:19;13.20;99.90
5278;DHT22;2662;51.194;6.614;2023-04-16T09:27:48;13.40;99.90
5278;DHT22;2662;51.194;6.614;2023-04-16T09:30:20;13.50;99.90
5278;DHT22;2662;51.194;6.614;2023-04-16T09:32:47;13.50;99.90
5278;DHT22;2662;51.194;6.614;2023-04-16T09:35:14;13.70;99.90
5278;DHT22;2662;51.194;6.614;2023-04-16T09:37:41;14.00;99.90
5278;DHT22;2662;51.194;6.614;2023-04-16T09:40:10;14.10;99.90
5278;DHT22;2662;51.194;6.614;2023-04-16T09:42:36;14.40;99.90
5278;DHT22;2662;51.194;6.614;2023-04-16T09:45:04;14.50;99.90
5278;DHT22;2662;51.194;6.614;2023-04-16T09:47:41;14.90;99.90
5278;DHT22;2662;51.194;6.614;2023-04-16T09:50:12;14.80;99.90
5278;DHT22;2662;51.194;6.614;2023-04-16T09:52:42;14.70;99.90
5278;DHT22;2662;51.194;6.614;2023-04-16T09:55:10;14.70;99.90
5278;DHT22;2662;51.194;6.614;2023-04-16T09:57:37;14.70;99.90
5278;DHT22;2662;51.194;6.614;2023-04-16T10:00:06;15.00;99.90
5278;DHT22;2662;51.194;6.614;2023-04-16T10:02:34;15.20;99.90
5278;DHT22;2662;51.194;6.614;2023-04-16T10:05:03;15.40;99.90
5278;DHT22;2662;51.194;6.614;2023-04-16T10:07:33;15.30;99.90
5278;DHT22;2662;51.194;6.614;2023-04-16T10:10:01;15.20;99.90
5278;DHT22;2662;51.194;6.614;2023-04-16T10:12:30;15.70;99.90
5278;DHT22;2662;51.194;6.614;2023-04-16T10:14:57;15.70;99.90
5278;DHT22;2662;51.194;6.614;2023-04-16T10:17:24;15.70;99.90
5278;DHT22;2662;51.194;6.614;2023-04-16T10:19:54;15.80;99.90
5278;DHT22;2662;51.194;6.614;2023-04-16T10:22:21;15.40;99.90
5278;DHT22;2662;51.194;6.614;2023-04-16T10:24:49;15.20;99.90
5278;DHT22;2662;51.194;6.614;2023-04-16T10:27:16;15.20;99.90
5278;DHT22;2662;51.194;6.614;2023-04-16T10:29:46;15.20;99.90
5278;DHT22;2662;51.194;6.614;2023-04-16T10:32:15;15.30;99.90
5278;DHT22;2662;51.194;6.614;2023-04-16T10:34:43;15.40;99.90
5278;DHT22;2662;51.194;6.614;2023-04-16T10:37:09;15.70;99.90
5278;DHT22;2662;51.194;6.614;2023-04-16T10:39:37;16.50;99.90
5278;DHT22;2662;51.194;6.614;2023-04-16T10:42:08;16.90;99.90
5278;DHT22;2662;51.194;6.614;2023-04-16T10:44:36;16.60;99.90
5278;DHT22;2662;51.194;6.614;2023-04-16T10:47:09;16.30;99.90
5278;DHT22;2662;51.194;6.614;2023-04-16T10:49:36;16.50;99.90
5278;DHT22;2662;51.194;6.614;2023-04-16T10:52:09;16.50;99.90
5278;DHT22;2662;51.194;6.614;2023-04-16T10:54:36;16.40;99.90
5278;DHT22;2662;51.194;6.614;2023-04-16T10:57:04;16.20;99.90
5278;DHT22;2662;51.194;6.614;2023-04-16T10:59:33;16.40;99.90
5278;DHT22;2662;51.194;6.614;2023-04-16T11:02:01;16.80;99.90
5278;DHT22;2662;51.194;6.614;2023-04-16T11:04:37;17.10;99.90
5278;DHT22;2662;51.194;6.614;2023-04-16T11:07:06;16.90;99.90
5278;DHT22;2662;51.194;6.614;2023-04-16T11:09:52;17.00;99.90
5278;DHT22;2662;51.194;6.614;2023-04-16T11:12:21;17.00;99.90
5278;DHT22;2662;51.194;6.614;2023-04-16T11:14:50;16.50;99.90
5278;DHT22;2662;51.194;6.614;2023-04-16T11:17:17;16.30;99.90
5278;DHT22;2662;51.194;6.614;2023-04-16T11:19:46;16.10;99.90
5278;DHT22;2662;51.194;6.614;2023-04-16T11:22:14;16.20;99.90
5278;DHT22;2662;51.194;6.614;2023-04-16T11:24:42;16.30;99.90
5278;DHT22;2662;51.194;6.614;2023-04-16T11:27:11;16.50;99.90
5278;DHT22;2662;51.194;6.614;2023-04-16T11:29:38;16.40;99.90
5278;DHT22;2662;51.194;6.614;2023-04-16T11:32:05;16.30;99.90
5278;DHT22;2662;51.194;6.614;2023-04-16T11:34:31;16.40;99.90
5278;DHT22;2662;51.194;6.614;2023-04-16T11:37:00;16.50;99.90
5278;DHT22;2662;51.194;6.614;2023-04-16T11:39:26;16.50;99.90
5278;DHT22;2662;51.194;6.614;2023-04-16T11:41:53;16.30;99.90
5278;DHT22;2662;51.194;6.614;2023-04-16T11:44:21;16.50;99.90
5278;DHT22;2662;51.194;6.614;2023-04-16T11:46:48;16.70;99.90
5278;DHT22;2662;51.194;6.614;2023-04-16T11:49:15;16.70;99.90
5278;DHT22;2662;51.194;6.614;2023-04-16T11:51:44;16.60;99.90
5278;DHT22;2662;51.194;6.614;2023-04-16T11:54:19;16.30;99.90
5278;DHT22;2662;51.194;6.614;2023-04-16T11:56:46;16.30;99.90
5278;DHT22;2662;51.194;6.614;2023-04-16T11:59:15;16.20;99.90
5278;DHT22;2662;51.194;6.614;2023-04-16T12:01:45;16.20;99.90
5278;DHT22;2662;51.194;6.614;2023-04-16T12:04:13;16.30;99.90
5278;DHT22;2662;51.194;6.614;2023-04-16T12:06:40;16.30;99.90
5278;DHT22;2662;51.194;6.614;2023-04-16T12:09:24;16.30;99.90
5278;DHT22;2662;51.194;6.614;2023-04-16T12:11:51;16.10;99.90
5278;DHT22;2662;51.194;6.614;2023-04-16T12:14:19;16.30;99.90
5278;DHT22;2662;51.194;6.614;2023-04-16T12:16:46;16.40;99.90
5278;DHT22;2662;51.194;6.614;2023-04-16T12:19:12;16.60;99.90
5278;DHT22;2662;51.194;6.614;2023-04-16T12:21:41;16.90;99.90
5278;DHT22;2662;51.194;6.614;2023-04-16T12:24:09;17.00;99.90
5278;DHT22;2662;51.194;6.614;2023-04-16T12:26:42;16.90;99.90
5278;DHT22;2662;51.194;6.614;2023-04-16T12:29:20;16.80;99.90
5278;DHT22;2662;51.194;6.614;2023-04-16T12:31:47;16.70;99.90
5278;DHT22;2662;51.194;6.614;2023-04-16T12:34:15;16.60;99.90
5278;DHT22;2662;51.194;6.614;2023-04-16T12:36:42;16.30;99.90
5278;DHT22;2662;51.194;6.614;2023-04-16T12:39:10;16.00;99.90
5278;DHT22;2662;51.194;6.614;2023-04-16T12:41:38;15.90;99.90
5278;DHT22;2662;51.194;6.614;2023-04-16T12:44:08;15.50;99.90
5278;DHT22;2662;51.194;6.614;2023-04-16T12:46:37;15.80;99.90
5278;DHT22;2662;51.194;6.614;2023-04-16T12:49:03;16.20;99.90
5278;DHT22;2662;51.194;6.614;2023-04-16T12:51:31;16.50;99.90
5278;DHT22;2662;51.194;6.614;2023-04-16T12:53:58;16.80;99.90
5278;DHT22;2662;51.194;6.614;2023-04-16T12:56:24;17.00;99.90
5278;DHT22;2662;51.194;6.614;2023-04-16T12:58:51;17.10;99.90
5278;DHT22;2662;51.194;6.614;2023-04-16T13:01:20;17.10;99.90
5278;DHT22;2662;51.194;6.614;2023-04-16T13:03:47;16.40;99.90
5278;DHT22;2662;51.194;6.614;2023-04-16T13:06:14;16.30;99.90
5278;DHT22;2662;51.194;6.614;2023-04-16T13:08:42;16.60;99.90
5278;DHT22;2662;51.194;6.614;2023-04-16T13:11:09;16.80;99.90
5278;DHT22;2662;51.194;6.614;2023-04-16T13:13:36;17.00;99.90
5278;DHT22;2662;51.194;6.614;2023-04-16T13:16:04;17.00;99.90
5278;DHT22;2662;51.194;6.614;2023-04-16T13:18:34;17.30;99.90
5278;DHT22;2662;51.194;6.614;2023-04-16T13:21:02;17.50;99.90
5278;DHT22;2662;51.194;6.614;2023-04-16T13:23:28;17.30;99.90
5278;DHT22;2662;51.194;6.614;2023-04-16T13:25:55;17.30;99.90
5278;DHT22;2662;51.194;6.614;2023-04-16T13:28:22;17.10;99.90
5278;DHT22;2662;51.194;6.614;2023-04-16T13:30:49;17.10;99.90
5278;DHT22;2662;51.194;6.614;2023-04-16T13:33:16;17.40;99.90
5278;DHT22;2662;51.194;6.614;2023-04-16T13:35:44;17.60;99.90
5278;DHT22;2662;51.194;6.614;2023-04-16T13:38:11;17.50;99.90
5278;DHT22;2662;51.194;6.614;2023-04-16T13:40:37;17.40;99.90
5278;DHT22;2662;51.194;6.614;2023-04-16T13:43:04;17.10;99.90
5278;DHT22;2662;51.194;6.614;2023-04-16T13:45:31;17.10;99.90
5278;DHT22;2662;51.194;6.614;2023-04-16T13:47:57;17.10;99.90
5278;DHT22;2662;51.194;6.614;2023-04-16T13:50:24;17.00;99.90
5278;DHT22;2662;51.194;6.614;2023-04-16T13:52:52;17.10;99.90
5278;DHT22;2662;51.194;6.614;2023-04-16T13:55:19;17.30;99.90
5278;DHT22;2662;51.194;6.614;2023-04-16T13:57:46;17.40;99.90
5278;DHT22;2662;51.194;6.614;2023-04-16T14:00:15;17.30;99.90
5278;DHT22;2662;51.194;6.614;2023-04-16T14:02:42;17.20;99.90
5278;DHT22;2662;51.194;6.614;2023-04-16T14:05:10;17.00;99.90
5278;DHT22;2662;51.194;6.614;2023-04-16T14:07:37;16.80;99.90
5278;DHT22;2662;51.194;6.614;2023-04-16T14:10:06;17.00;99.90
5278;DHT22;2662;51.194;6.614;2023-04-16T14:12:33;17.00;99.90
5278;DHT22;2662;51.194;6.614;2023-04-16T14:15:01;17.20;99.90
5278;DHT22;2662;51.194;6.614;2023-04-16T14:17:28;17.20;99.90
5278;DHT22;2662;51.194;6.614;2023-04-16T14:19:55;17.10;99.90
5278;DHT22;2662;51.194;6.614;2023-04-16T14:22:22;17.30;99.90
5278;DHT22;2662;51.194;6.614;2023-04-16T14:24:49;17.40;99.90
5278;DHT22;2662;51.194;6.614;2023-04-16T14:27:17;17.50;99.90
5278;DHT22;2662;51.194;6.614;2023-04-16T14:29:43;17.60;99.90
5278;DHT22;2662;51.194;6.614;2023-04-16T14:32:11;17.30;99.90
5278;DHT22;2662;51.194;6.614;2023-04-16T14:34:38;17.30;99.90
5278;DHT22;2662;51.194;6.614;2023-04-16T14:37:04;17.30;99.90
5278;DHT22;2662;51.194;6.614;2023-04-16T14:39:31;17.50;99.90
5278;DHT22;2662;51.194;6.614;2023-04-16T14:41:58;17.60;99.90
5278;DHT22;2662;51.194;6.614;2023-04-16T14:44:26;17.50;99.90
5278;DHT22;2662;51.194;6.614;2023-04-16T14:46:53;17.60;99.90
5278;DHT22;2662;51.194;6.614;2023-04-16T14:49:20;17.80;99.90
5278;DHT22;2662;51.194;6.614;2023-04-16T14:51:47;17.50;99.90
5278;DHT22;2662;51.194;6.614;2023-04-16T14:54:14;17.40;99.90
5278;DHT22;2662;51.194;6.614;2023-04-16T14:56:40;17.40;99.90
5278;DHT22;2662;51.194;6.614;2023-04-16T14:59:07;17.40;99.90
5278;DHT22;2662;51.194;6.614;2023-04-16T15:01:35;17.30;99.90
5278;DHT22;2662;51.194;6.614;2023-04-16T15:04:04;17.40;99.90
5278;DHT22;2662;51.194;6.614;2023-04-16T15:06:31;17.60;99.90
5278;DHT22;2662;51.194;6.614;2023-04-16T15:08:57;17.80;99.90
5278;DHT22;2662;51.194;6.614;2023-04-16T15:11:24;17.90;99.90
5278;DHT22;2662;51.194;6.614;2023-04-16T15:13:51;17.90;99.90
5278;DHT22;2662;51.194;6.614;2023-04-16T15:16:18;17.80;99.90
5278;DHT22;2662;51.194;6.614;2023-04-16T15:18:46;17.60;99.90
5278;DHT22;2662;51.194;6.614;2023-04-16T15:21:12;17.70;99.90
5278;DHT22;2662;51.194;6.614;2023-04-16T15:23:39;17.60;99.90
5278;DHT22;2662;51.194;6.614;2023-04-16T15:26:06;17.50;99.90
5278;DHT22;2662;51.194;6.614;2023-04-16T15:28:33;17.20;99.90
5278;DHT22;2662;51.194;6.614;2023-04-16T15:30:59;17.00;99.90
5278;DHT22;2662;51.194;6.614;2023-04-16T15:33:26;16.80;99.90
5278;DHT22;2662;51.194;6.614;2023-04-16T15:35:54;16.70;99.90
5278;DHT22;2662;51.194;6.614;2023-04-16T15:38:21;16.50;99.90
5278;DHT22;2662;51.194;6.614;2023-04-16T15:40:48;16.40;99.90
5278;DHT22;2662;51.194;6.614;2023-04-16T15:43:15;16.20;99.90
5278;DHT22;2662;51.194;6.614;2023-04-16T15:45:41;16.20;99.90
5278;DHT22;2662;51.194;6.614;2023-04-16T15:48:08;16.20;99.90
5278;DHT22;2662;51.194;6.614;2023-04-16T15:50:35;16.00;99.90
5278;DHT22;2662;51.194;6.614;2023-04-16T15:53:03;15.90;99.90
5278;DHT22;2662;51.194;6.614;2023-04-16T15:55:30;15.80;99.90
5278;DHT22;2662;51.194;6.614;2023-04-16T15:57:57;15.60;99.90
5278;DHT22;2662;51.194;6.614;2023-04-16T16:00:23;15.30;99.90
5278;DHT22;2662;51.194;6.614;2023-04-16T16:02:50;15.00;99.90
5278;DHT22;2662;51.194;6.614;2023-04-16T16:05:17;14.90;99.90
5278;DHT22;2662;51.194;6.614;2023-04-16T16:07:44;14.80;99.90